sensor_id;sensor_type;location;lat;lon;timestamp;P1;durP1;ratioP1;P2;durP2;ratioP2
62633;SDS011;48704;50.534;6.442;2022-12-26T00:01:16;6.78;;;2.67;;
62633;SDS011;48704;50.534;6.442;2022-12-26T00:03:43;5.57;;;3.13;;
62633;SDS011;48704;50.534;6.442;2022-12-26T00:06:13;4.10;;;2.08;;
62633;SDS011;48704;50.534;6.442;2022-12-26T00:08:40;4.15;;;2.35;;
62633;SDS011;48704;50.534;6.442;2022-12-26T00:11:06;5.32;;;2.20;;
62633;SDS011;48704;50.534;6.442;2022-12-26T00:13:32;5.97;;;2.42;;
62633;SDS011;48704;50.534;6.442;2022-12-26T00:15:57;5.57;;;2.22;;
62633;SDS011;48704;50.534;6.442;2022-12-26T00:18:23;3.53;;;2.03;;
62633;SDS011;48704;50.534;6.442;2022-12-26T00:20:48;3.35;;;2.05;;
62633;SDS011;48704;50.534;6.442;2022-12-26T00:23:13;5.05;;;2.28;;
62633;SDS011;48704;50.534;6.442;2022-12-26T00:25:39;4.70;;;2.03;;
62633;SDS011;48704;50.534;6.442;2022-12-26T00:28:04;5.30;;;1.83;;
62633;SDS011;48704;50.534;6.442;2022-12-26T00:30:29;3.20;;;1.67;;
62633;SDS011;48704;50.534;6.442;2022-12-26T00:32:54;3.55;;;2.03;;
62633;SDS011;48704;50.534;6.442;2022-12-26T00:35:20;4.18;;;1.83;;
62633;SDS011;48704;50.534;6.442;2022-12-26T00:37:45;3.30;;;1.90;;
62633;SDS011;48704;50.534;6.442;2022-12-26T00:40:10;5.53;;;2.45;;
62633;SDS011;48704;50.534;6.442;2022-12-26T00:42:36;9.18;;;2.65;;
62633;SDS011;48704;50.534;6.442;2022-12-26T00:45:01;4.70;;;1.88;;
62633;SDS011;48704;50.534;6.442;2022-12-26T00:47:27;5.72;;;2.15;;
62633;SDS011;48704;50.534;6.442;2022-12-26T00:49:52;6.55;;;2.38;;
62633;SDS011;48704;50.534;6.442;2022-12-26T00:52:17;6.68;;;1.92;;
62633;SDS011;48704;50.534;6.442;2022-12-26T00:54:43;5.28;;;2.50;;
62633;SDS011;48704;50.534;6.442;2022-12-26T00:57:09;6.28;;;2.13;;
62633;SDS011;48704;50.534;6.442;2022-12-26T00:59:34;5.75;;;2.58;;
62633;SDS011;48704;50.534;6.442;2022-12-26T01:01:59;3.65;;;2.33;;
62633;SDS011;48704;50.534;6.442;2022-12-26T01:04:25;3.80;;;2.20;;
62633;SDS011;48704;50.534;6.442;2022-12-26T01:06:51;5.38;;;2.35;;
62633;SDS011;48704;50.534;6.442;2022-12-26T01:09:17;4.57;;;2.05;;
62633;SDS011;48704;50.534;6.442;2022-12-26T01:11:42;8.77;;;3.00;;
62633;SDS011;48704;50.534;6.442;2022-12-26T01:14:15;6.70;;;2.67;;
62633;SDS011;48704;50.534;6.442;2022-12-26T01:19:08;7.03;;;2.72;;
62633;SDS011;48704;50.534;6.442;2022-12-26T01:21:35;5.07;;;2.85;;
62633;SDS011;48704;50.534;6.442;2022-12-26T01:24:01;7.28;;;3.40;;
62633;SDS011;48704;50.534;6.442;2022-12-26T01:26:27;10.60;;;3.75;;
62633;SDS011;48704;50.534;6.442;2022-12-26T01:28:52;7.20;;;3.03;;
62633;SDS011;48704;50.534;6.442;2022-12-26T01:31:18;7.22;;;2.72;;
62633;SDS011;48704;50.534;6.442;2022-12-26T01:33:45;4.97;;;2.88;;
62633;SDS011;48704;50.534;6.442;2022-12-26T01:36:11;13.85;;;3.45;;
62633;SDS011;48704;50.534;6.442;2022-12-26T01:38:37;6.05;;;2.33;;
62633;SDS011;48704;50.534;6.442;2022-12-26T01:41:02;7.30;;;3.15;;
62633;SDS011;48704;50.534;6.442;2022-12-26T01:46:14;8.38;;;3.03;;
62633;SDS011;48704;50.534;6.442;2022-12-26T01:48:40;6.53;;;2.85;;
62633;SDS011;48704;50.534;6.442;2022-12-26T01:51:06;4.22;;;2.20;;
62633;SDS011;48704;50.534;6.442;2022-12-26T01:53:35;5.70;;;2.65;;
62633;SDS011;48704;50.534;6.442;2022-12-26T01:56:06;5.35;;;2.97;;
62633;SDS011;48704;50.534;6.442;2022-12-26T01:58:35;6.80;;;2.67;;
62633;SDS011;48704;50.534;6.442;2022-12-26T02:01:05;5.82;;;2.60;;
62633;SDS011;48704;50.534;6.442;2022-12-26T02:03:32;7.80;;;2.47;;
62633;SDS011;48704;50.534;6.442;2022-12-26T02:06:18;6.47;;;2.58;;
62633;SDS011;48704;50.534;6.442;2022-12-26T02:08:43;8.50;;;2.60;;
62633;SDS011;48704;50.534;6.442;2022-12-26T02:11:15;6.00;;;2.50;;
62633;SDS011;48704;50.534;6.442;2022-12-26T02:13:44;7.38;;;2.33;;
62633;SDS011;48704;50.534;6.442;2022-12-26T02:16:11;5.78;;;2.45;;
62633;SDS011;48704;50.534;6.442;2022-12-26T02:18:39;4.22;;;2.40;;
62633;SDS011;48704;50.534;6.442;2022-12-26T02:29:10;6.65;;;2.05;;
62633;SDS011;48704;50.534;6.442;2022-12-26T02:37:53;4.00;;;2.20;;
62633;SDS011;48704;50.534;6.442;2022-12-26T02:43:14;5.10;;;1.90;;
62633;SDS011;48704;50.534;6.442;2022-12-26T02:51:23;6.85;;;1.98;;
62633;SDS011;48704;50.534;6.442;2022-12-26T02:57:21;5.60;;;1.55;;
62633;SDS011;48704;50.534;6.442;2022-12-26T03:00:15;5.75;;;2.20;;
62633;SDS011;48704;50.534;6.442;2022-12-26T03:03:12;3.75;;;1.77;;
62633;SDS011;48704;50.534;6.442;2022-12-26T03:06:02;4.25;;;1.65;;
62633;SDS011;48704;50.534;6.442;2022-12-26T03:11:48;3.72;;;2.08;;
62633;SDS011;48704;50.534;6.442;2022-12-26T03:14:40;8.07;;;2.08;;
62633;SDS011;48704;50.534;6.442;2022-12-26T03:17:13;4.57;;;1.88;;
62633;SDS011;48704;50.534;6.442;2022-12-26T03:25:07;3.33;;;1.77;;
62633;SDS011;48704;50.534;6.442;2022-12-26T03:27:54;6.60;;;2.45;;
62633;SDS011;48704;50.534;6.442;2022-12-26T03:30:19;6.13;;;2.17;;
62633;SDS011;48704;50.534;6.442;2022-12-26T03:33:04;6.68;;;2.40;;
62633;SDS011;48704;50.534;6.442;2022-12-26T03:35:30;6.45;;;2.22;;
62633;SDS011;48704;50.534;6.442;2022-12-26T03:40:39;5.85;;;2.30;;
62633;SDS011;48704;50.534;6.442;2022-12-26T03:43:38;5.53;;;1.90;;
62633;SDS011;48704;50.534;6.442;2022-12-26T03:49:21;4.22;;;2.10;;
62633;SDS011;48704;50.534;6.442;2022-12-26T03:57:55;5.63;;;2.75;;
62633;SDS011;48704;50.534;6.442;2022-12-26T04:00:46;3.28;;;1.67;;
62633;SDS011;48704;50.534;6.442;2022-12-26T04:03:32;7.38;;;2.50;;
62633;SDS011;48704;50.534;6.442;2022-12-26T04:06:19;4.22;;;2.60;;
62633;SDS011;48704;50.534;6.442;2022-12-26T04:09:12;5.70;;;2.50;;
62633;SDS011;48704;50.534;6.442;2022-12-26T04:11:59;5.88;;;2.17;;
62633;SDS011;48704;50.534;6.442;2022-12-26T04:14:52;6.80;;;2.35;;
62633;SDS011;48704;50.534;6.442;2022-12-26T04:20:37;3.97;;;2.42;;
62633;SDS011;48704;50.534;6.442;2022-12-26T04:23:53;6.57;;;3.03;;
62633;SDS011;48704;50.534;6.442;2022-12-26T04:29:12;5.18;;;1.70;;
62633;SDS011;48704;50.534;6.442;2022-12-26T04:32:08;4.53;;;2.15;;
62633;SDS011;48704;50.534;6.442;2022-12-26T04:35:00;3.28;;;2.03;;
62633;SDS011;48704;50.534;6.442;2022-12-26T04:37:49;6.40;;;2.00;;
62633;SDS011;48704;50.534;6.442;2022-12-26T04:40:37;5.88;;;2.28;;
62633;SDS011;48704;50.534;6.442;2022-12-26T04:43:26;4.50;;;2.03;;
62633;SDS011;48704;50.534;6.442;2022-12-26T04:46:12;3.35;;;1.63;;
62633;SDS011;48704;50.534;6.442;2022-12-26T04:48:45;5.13;;;1.63;;
62633;SDS011;48704;50.534;6.442;2022-12-26T04:51:31;4.30;;;1.70;;
62633;SDS011;48704;50.534;6.442;2022-12-26T04:53:56;5.18;;;1.98;;
62633;SDS011;48704;50.534;6.442;2022-12-26T04:56:21;3.10;;;1.60;;
62633;SDS011;48704;50.534;6.442;2022-12-26T04:58:47;6.70;;;1.95;;
62633;SDS011;48704;50.534;6.442;2022-12-26T05:01:12;5.05;;;2.20;;
62633;SDS011;48704;50.534;6.442;2022-12-26T05:03:56;5.10;;;1.65;;
62633;SDS011;48704;50.534;6.442;2022-12-26T05:06:39;5.10;;;2.00;;
62633;SDS011;48704;50.534;6.442;2022-12-26T05:11:58;6.70;;;2.00;;
62633;SDS011;48704;50.534;6.442;2022-12-26T05:14:23;3.60;;;2.25;;
62633;SDS011;48704;50.534;6.442;2022-12-26T05:16:48;3.90;;;1.80;;
62633;SDS011;48704;50.534;6.442;2022-12-26T05:22:16;3.85;;;2.00;;
62633;SDS011;48704;50.534;6.442;2022-12-26T05:27:44;5.30;;;1.63;;
62633;SDS011;48704;50.534;6.442;2022-12-26T05:32:53;2.10;;;1.17;;
62633;SDS011;48704;50.534;6.442;2022-12-26T05:35:37;3.25;;;1.58;;
62633;SDS011;48704;50.534;6.442;2022-12-26T05:38:03;2.08;;;1.20;;
62633;SDS011;48704;50.534;6.442;2022-12-26T05:40:29;4.80;;;1.70;;
62633;SDS011;48704;50.534;6.442;2022-12-26T05:42:54;3.33;;;1.50;;
62633;SDS011;48704;50.534;6.442;2022-12-26T05:45:20;5.45;;;1.50;;
62633;SDS011;48704;50.534;6.442;2022-12-26T05:47:45;5.22;;;1.50;;
62633;SDS011;48704;50.534;6.442;2022-12-26T05:50:10;3.97;;;1.38;;
62633;SDS011;48704;50.534;6.442;2022-12-26T05:52:36;3.15;;;1.38;;
62633;SDS011;48704;50.534;6.442;2022-12-26T05:55:01;2.25;;;1.08;;
62633;SDS011;48704;50.534;6.442;2022-12-26T05:57:26;2.13;;;1.23;;
62633;SDS011;48704;50.534;6.442;2022-12-26T05:59:52;3.17;;;1.42;;
62633;SDS011;48704;50.534;6.442;2022-12-26T06:02:17;3.85;;;1.08;;
62633;SDS011;48704;50.534;6.442;2022-12-26T06:04:42;5.20;;;1.38;;
62633;SDS011;48704;50.534;6.442;2022-12-26T06:07:08;3.72;;;1.30;;
62633;SDS011;48704;50.534;6.442;2022-12-26T06:09:33;5.13;;;1.27;;
62633;SDS011;48704;50.534;6.442;2022-12-26T06:11:58;3.30;;;1.15;;
62633;SDS011;48704;50.534;6.442;2022-12-26T06:14:24;2.58;;;1.20;;
62633;SDS011;48704;50.534;6.442;2022-12-26T06:16:49;4.20;;;1.40;;
62633;SDS011;48704;50.534;6.442;2022-12-26T06:19:14;2.42;;;1.55;;
62633;SDS011;48704;50.534;6.442;2022-12-26T06:21:40;2.47;;;1.42;;
62633;SDS011;48704;50.534;6.442;2022-12-26T06:24:05;3.65;;;1.65;;
62633;SDS011;48704;50.534;6.442;2022-12-26T06:26:30;4.45;;;1.55;;
62633;SDS011;48704;50.534;6.442;2022-12-26T06:28:56;5.13;;;1.52;;
62633;SDS011;48704;50.534;6.442;2022-12-26T06:31:21;2.00;;;1.15;;
62633;SDS011;48704;50.534;6.442;2022-12-26T06:33:49;3.03;;;1.98;;
62633;SDS011;48704;50.534;6.442;2022-12-26T06:36:16;3.50;;;1.25;;
62633;SDS011;48704;50.534;6.442;2022-12-26T06:38:43;2.53;;;1.00;;
62633;SDS011;48704;50.534;6.442;2022-12-26T06:41:10;3.17;;;1.40;;
62633;SDS011;48704;50.534;6.442;2022-12-26T06:43:37;2.10;;;1.00;;
62633;SDS011;48704;50.534;6.442;2022-12-26T06:46:06;2.22;;;1.00;;
62633;SDS011;48704;50.534;6.442;2022-12-26T06:48:34;2.83;;;1.02;;
62633;SDS011;48704;50.534;6.442;2022-12-26T06:51:08;3.58;;;0.95;;
62633;SDS011;48704;50.534;6.442;2022-12-26T06:53:36;2.47;;;0.98;;
62633;SDS011;48704;50.534;6.442;2022-12-26T06:56:05;3.83;;;1.05;;
62633;SDS011;48704;50.534;6.442;2022-12-26T06:58:34;2.42;;;0.80;;
62633;SDS011;48704;50.534;6.442;2022-12-26T07:01:03;3.85;;;0.98;;
62633;SDS011;48704;50.534;6.442;2022-12-26T07:03:34;1.50;;;0.82;;
62633;SDS011;48704;50.534;6.442;2022-12-26T07:06:05;2.72;;;1.05;;
62633;SDS011;48704;50.534;6.442;2022-12-26T07:08:32;3.53;;;1.00;;
62633;SDS011;48704;50.534;6.442;2022-12-26T07:10:58;3.40;;;0.90;;
62633;SDS011;48704;50.534;6.442;2022-12-26T07:13:23;2.30;;;0.70;;
62633;SDS011;48704;50.534;6.442;2022-12-26T07:15:49;3.45;;;1.10;;
62633;SDS011;48704;50.534;6.442;2022-12-26T07:18:14;1.77;;;0.80;;
62633;SDS011;48704;50.534;6.442;2022-12-26T07:20:39;1.90;;;0.90;;
62633;SDS011;48704;50.534;6.442;2022-12-26T07:23:05;2.03;;;1.02;;
62633;SDS011;48704;50.534;6.442;2022-12-26T07:25:30;2.67;;;0.93;;
62633;SDS011;48704;50.534;6.442;2022-12-26T07:27:55;2.78;;;0.70;;
62633;SDS011;48704;50.534;6.442;2022-12-26T07:30:21;1.15;;;0.70;;
62633;SDS011;48704;50.534;6.442;2022-12-26T07:32:46;2.65;;;1.17;;
62633;SDS011;48704;50.534;6.442;2022-12-26T07:35:11;2.03;;;0.50;;
62633;SDS011;48704;50.534;6.442;2022-12-26T07:37:37;2.47;;;1.00;;
62633;SDS011;48704;50.534;6.442;2022-12-26T07:40:02;2.38;;;0.80;;
62633;SDS011;48704;50.534;6.442;2022-12-26T07:42:28;2.08;;;0.70;;
62633;SDS011;48704;50.534;6.442;2022-12-26T07:44:53;1.58;;;0.77;;
62633;SDS011;48704;50.534;6.442;2022-12-26T07:47:18;2.67;;;1.48;;
62633;SDS011;48704;50.534;6.442;2022-12-26T07:49:44;1.58;;;0.90;;
62633;SDS011;48704;50.534;6.442;2022-12-26T07:52:09;1.13;;;0.70;;
62633;SDS011;48704;50.534;6.442;2022-12-26T07:54:34;2.05;;;1.10;;
62633;SDS011;48704;50.534;6.442;2022-12-26T07:57:00;1.50;;;0.70;;
62633;SDS011;48704;50.534;6.442;2022-12-26T07:59:25;5.30;;;1.23;;
62633;SDS011;48704;50.534;6.442;2022-12-26T08:01:50;2.80;;;1.20;;
62633;SDS011;48704;50.534;6.442;2022-12-26T08:04:16;2.72;;;1.35;;
62633;SDS011;48704;50.534;6.442;2022-12-26T08:06:41;2.17;;;1.17;;
62633;SDS011;48704;50.534;6.442;2022-12-26T08:09:06;3.50;;;1.00;;
62633;SDS011;48704;50.534;6.442;2022-12-26T08:11:36;2.42;;;1.20;;
62633;SDS011;48704;50.534;6.442;2022-12-26T08:14:01;3.10;;;1.23;;
62633;SDS011;48704;50.534;6.442;2022-12-26T08:16:26;3.00;;;1.05;;
62633;SDS011;48704;50.534;6.442;2022-12-26T08:18:52;1.98;;;0.85;;
62633;SDS011;48704;50.534;6.442;2022-12-26T08:21:18;2.28;;;1.02;;
62633;SDS011;48704;50.534;6.442;2022-12-26T08:23:43;2.03;;;0.90;;
62633;SDS011;48704;50.534;6.442;2022-12-26T08:26:10;1.33;;;0.75;;
62633;SDS011;48704;50.534;6.442;2022-12-26T08:28:36;1.60;;;0.90;;
62633;SDS011;48704;50.534;6.442;2022-12-26T08:31:05;2.55;;;1.08;;
62633;SDS011;48704;50.534;6.442;2022-12-26T08:33:32;1.75;;;1.08;;
62633;SDS011;48704;50.534;6.442;2022-12-26T08:36:00;6.28;;;1.38;;
62633;SDS011;48704;50.534;6.442;2022-12-26T08:38:29;3.50;;;1.15;;
62633;SDS011;48704;50.534;6.442;2022-12-26T08:40:55;2.83;;;1.15;;
62633;SDS011;48704;50.534;6.442;2022-12-26T08:43:21;4.38;;;1.40;;
62633;SDS011;48704;50.534;6.442;2022-12-26T08:45:55;4.53;;;1.38;;
62633;SDS011;48704;50.534;6.442;2022-12-26T08:50:46;2.75;;;1.20;;
62633;SDS011;48704;50.534;6.442;2022-12-26T08:53:12;3.42;;;1.30;;
62633;SDS011;48704;50.534;6.442;2022-12-26T08:55:37;2.92;;;1.20;;
62633;SDS011;48704;50.534;6.442;2022-12-26T08:58:02;2.67;;;0.90;;
62633;SDS011;48704;50.534;6.442;2022-12-26T09:00:28;3.97;;;1.42;;
62633;SDS011;48704;50.534;6.442;2022-12-26T09:02:53;2.22;;;1.10;;
62633;SDS011;48704;50.534;6.442;2022-12-26T09:05:18;4.53;;;1.20;;
62633;SDS011;48704;50.534;6.442;2022-12-26T09:07:44;2.08;;;1.05;;
62633;SDS011;48704;50.534;6.442;2022-12-26T09:10:09;1.52;;;0.73;;
62633;SDS011;48704;50.534;6.442;2022-12-26T09:12:34;2.97;;;1.10;;
62633;SDS011;48704;50.534;6.442;2022-12-26T09:15:00;2.83;;;0.90;;
62633;SDS011;48704;50.534;6.442;2022-12-26T09:17:25;2.05;;;0.80;;
62633;SDS011;48704;50.534;6.442;2022-12-26T09:19:51;1.73;;;0.80;;
62633;SDS011;48704;50.534;6.442;2022-12-26T09:22:17;1.48;;;0.73;;
62633;SDS011;48704;50.534;6.442;2022-12-26T09:25:01;3.80;;;1.13;;
62633;SDS011;48704;50.534;6.442;2022-12-26T09:27:27;2.45;;;0.98;;
62633;SDS011;48704;50.534;6.442;2022-12-26T09:29:53;3.95;;;1.08;;
62633;SDS011;48704;50.534;6.442;2022-12-26T09:32:18;1.95;;;1.38;;
62633;SDS011;48704;50.534;6.442;2022-12-26T09:34:43;3.10;;;0.90;;
62633;SDS011;48704;50.534;6.442;2022-12-26T09:37:09;2.08;;;0.77;;
62633;SDS011;48704;50.534;6.442;2022-12-26T09:39:34;5.32;;;1.05;;
62633;SDS011;48704;50.534;6.442;2022-12-26T09:47:33;4.05;;;0.70;;
62633;SDS011;48704;50.534;6.442;2022-12-26T09:52:51;1.42;;;0.70;;
62633;SDS011;48704;50.534;6.442;2022-12-26T09:57:51;2.63;;;0.80;;
62633;SDS011;48704;50.534;6.442;2022-12-26T10:00:21;2.88;;;0.98;;
62633;SDS011;48704;50.534;6.442;2022-12-26T10:02:51;2.47;;;0.80;;
62633;SDS011;48704;50.534;6.442;2022-12-26T10:05:24;3.22;;;0.60;;
62633;SDS011;48704;50.534;6.442;2022-12-26T10:07:56;1.92;;;0.65;;
62633;SDS011;48704;50.534;6.442;2022-12-26T10:10:30;5.85;;;0.73;;
62633;SDS011;48704;50.534;6.442;2022-12-26T10:15:54;3.15;;;1.00;;
62633;SDS011;48704;50.534;6.442;2022-12-26T10:18:50;3.90;;;0.80;;
62633;SDS011;48704;50.534;6.442;2022-12-26T10:21:28;2.35;;;1.05;;
62633;SDS011;48704;50.534;6.442;2022-12-26T10:24:11;2.08;;;1.02;;
62633;SDS011;48704;50.534;6.442;2022-12-26T10:26:42;5.28;;;0.85;;
62633;SDS011;48704;50.534;6.442;2022-12-26T10:34:39;3.38;;;1.13;;
62633;SDS011;48704;50.534;6.442;2022-12-26T10:39:43;4.03;;;1.10;;
62633;SDS011;48704;50.534;6.442;2022-12-26T10:45:15;1.90;;;0.60;;
62633;SDS011;48704;50.534;6.442;2022-12-26T10:47:51;3.28;;;0.70;;
62633;SDS011;48704;50.534;6.442;2022-12-26T10:50:26;3.42;;;1.17;;
62633;SDS011;48704;50.534;6.442;2022-12-26T10:52:57;5.90;;;0.90;;
62633;SDS011;48704;50.534;6.442;2022-12-26T10:55:27;1.23;;;0.63;;
62633;SDS011;48704;50.534;6.442;2022-12-26T10:57:56;3.15;;;0.95;;
62633;SDS011;48704;50.534;6.442;2022-12-26T11:00:26;2.10;;;0.82;;
62633;SDS011;48704;50.534;6.442;2022-12-26T11:05:49;4.15;;;0.73;;
62633;SDS011;48704;50.534;6.442;2022-12-26T11:08:18;7.22;;;1.60;;
62633;SDS011;48704;50.534;6.442;2022-12-26T11:10:47;2.40;;;0.77;;
62633;SDS011;48704;50.534;6.442;2022-12-26T11:13:25;5.78;;;0.93;;
62633;SDS011;48704;50.534;6.442;2022-12-26T11:15:51;1.83;;;0.95;;
62633;SDS011;48704;50.534;6.442;2022-12-26T11:18:22;3.20;;;1.02;;
62633;SDS011;48704;50.534;6.442;2022-12-26T11:23:43;3.83;;;1.30;;
62633;SDS011;48704;50.534;6.442;2022-12-26T11:26:24;2.17;;;0.90;;
62633;SDS011;48704;50.534;6.442;2022-12-26T11:29:04;2.90;;;0.80;;
62633;SDS011;48704;50.534;6.442;2022-12-26T11:31:36;3.35;;;1.20;;
62633;SDS011;48704;50.534;6.442;2022-12-26T11:34:06;3.75;;;0.88;;
62633;SDS011;48704;50.534;6.442;2022-12-26T11:36:33;2.03;;;0.73;;
62633;SDS011;48704;50.534;6.442;2022-12-26T11:39:04;3.47;;;0.90;;
62633;SDS011;48704;50.534;6.442;2022-12-26T11:41:43;2.10;;;0.85;;
62633;SDS011;48704;50.534;6.442;2022-12-26T11:44:15;2.38;;;1.15;;
62633;SDS011;48704;50.534;6.442;2022-12-26T11:52:36;3.35;;;0.60;;
62633;SDS011;48704;50.534;6.442;2022-12-26T11:57:53;5.28;;;0.60;;
62633;SDS011;48704;50.534;6.442;2022-12-26T12:00:39;1.20;;;0.40;;
62633;SDS011;48704;50.534;6.442;2022-12-26T12:03:12;0.82;;;0.60;;
62633;SDS011;48704;50.534;6.442;2022-12-26T12:06:02;3.15;;;1.10;;
62633;SDS011;48704;50.534;6.442;2022-12-26T12:08:57;1.02;;;0.55;;
62633;SDS011;48704;50.534;6.442;2022-12-26T12:12:05;2.22;;;0.95;;
62633;SDS011;48704;50.534;6.442;2022-12-26T12:17:20;2.10;;;0.90;;
62633;SDS011;48704;50.534;6.442;2022-12-26T12:25:25;1.75;;;0.90;;
62633;SDS011;48704;50.534;6.442;2022-12-26T12:36:36;4.13;;;1.10;;
62633;SDS011;48704;50.534;6.442;2022-12-26T12:44:57;4.28;;;1.13;;
62633;SDS011;48704;50.534;6.442;2022-12-26T12:47:34;0.85;;;0.55;;
62633;SDS011;48704;50.534;6.442;2022-12-26T12:50:30;4.30;;;1.05;;
62633;SDS011;48704;50.534;6.442;2022-12-26T12:56:10;3.60;;;0.88;;
62633;SDS011;48704;50.534;6.442;2022-12-26T13:01:15;1.80;;;0.85;;
62633;SDS011;48704;50.534;6.442;2022-12-26T13:04:32;1.75;;;0.68;;
62633;SDS011;48704;50.534;6.442;2022-12-26T13:06:41;5.20;;;1.00;;
62633;SDS011;48704;50.534;6.442;2022-12-26T13:09:15;2.50;;;0.82;;
62633;SDS011;48704;50.534;6.442;2022-12-26T13:11:50;4.38;;;0.98;;
62633;SDS011;48704;50.534;6.442;2022-12-26T13:14:25;3.22;;;1.00;;
62633;SDS011;48704;50.534;6.442;2022-12-26T13:17:03;3.33;;;1.08;;
62633;SDS011;48704;50.534;6.442;2022-12-26T13:19:36;3.47;;;1.17;;
62633;SDS011;48704;50.534;6.442;2022-12-26T13:22:05;2.88;;;1.15;;
62633;SDS011;48704;50.534;6.442;2022-12-26T13:24:39;3.92;;;0.70;;
62633;SDS011;48704;50.534;6.442;2022-12-26T13:27:17;5.05;;;0.80;;
62633;SDS011;48704;50.534;6.442;2022-12-26T13:29:47;2.50;;;1.08;;
62633;SDS011;48704;50.534;6.442;2022-12-26T13:34:52;8.10;;;1.27;;
62633;SDS011;48704;50.534;6.442;2022-12-26T13:42:44;1.10;;;0.60;;
62633;SDS011;48704;50.534;6.442;2022-12-26T13:45:45;2.70;;;0.40;;
62633;SDS011;48704;50.534;6.442;2022-12-26T13:53:26;0.93;;;0.40;;
62633;SDS011;48704;50.534;6.442;2022-12-26T13:58:54;1.27;;;0.30;;
62633;SDS011;48704;50.534;6.442;2022-12-26T14:01:47;0.35;;;0.30;;
62633;SDS011;48704;50.534;6.442;2022-12-26T14:07:02;0.30;;;0.20;;
62633;SDS011;48704;50.534;6.442;2022-12-26T14:15:02;0.10;;;0.10;;
62633;SDS011;48704;50.534;6.442;2022-12-26T14:26:20;0.45;;;0.13;;
62633;SDS011;48704;50.534;6.442;2022-12-26T14:31:58;0.38;;;0.20;;
62633;SDS011;48704;50.534;6.442;2022-12-26T14:50:50;2.13;;;0.50;;
62633;SDS011;48704;50.534;6.442;2022-12-26T14:55:45;0.95;;;0.50;;
62633;SDS011;48704;50.534;6.442;2022-12-26T15:03:43;1.00;;;0.57;;
62633;SDS011;48704;50.534;6.442;2022-12-26T15:17:35;4.03;;;2.40;;
62633;SDS011;48704;50.534;6.442;2022-12-26T15:20:34;10.43;;;2.60;;
62633;SDS011;48704;50.534;6.442;2022-12-26T15:23:37;3.22;;;1.88;;
62633;SDS011;48704;50.534;6.442;2022-12-26T15:26:14;2.63;;;1.58;;
62633;SDS011;48704;50.534;6.442;2022-12-26T15:28:50;3.13;;;1.52;;
62633;SDS011;48704;50.534;6.442;2022-12-26T15:31:31;3.28;;;1.63;;
62633;SDS011;48704;50.534;6.442;2022-12-26T15:36:55;3.55;;;1.58;;
62633;SDS011;48704;50.534;6.442;2022-12-26T15:44:48;3.03;;;1.35;;
62633;SDS011;48704;50.534;6.442;2022-12-26T15:47:48;3.28;;;1.50;;
62633;SDS011;48704;50.534;6.442;2022-12-26T15:53:20;4.85;;;1.00;;
62633;SDS011;48704;50.534;6.442;2022-12-26T15:59:10;5.53;;;1.17;;
62633;SDS011;48704;50.534;6.442;2022-12-26T16:02:10;2.78;;;0.82;;
62633;SDS011;48704;50.534;6.442;2022-12-26T16:04:43;2.63;;;1.42;;
62633;SDS011;48704;50.534;6.442;2022-12-26T16:10:06;2.33;;;1.33;;
62633;SDS011;48704;50.534;6.442;2022-12-26T16:12:56;3.97;;;1.20;;
62633;SDS011;48704;50.534;6.442;2022-12-26T16:15:28;3.45;;;0.80;;
62633;SDS011;48704;50.534;6.442;2022-12-26T16:18:11;3.15;;;0.93;;
62633;SDS011;48704;50.534;6.442;2022-12-26T16:20:40;2.28;;;1.00;;
62633;SDS011;48704;50.534;6.442;2022-12-26T16:23:27;2.28;;;0.95;;
62633;SDS011;48704;50.534;6.442;2022-12-26T16:25:56;2.22;;;1.05;;
62633;SDS011;48704;50.534;6.442;2022-12-26T16:28:25;4.47;;;1.17;;
62633;SDS011;48704;50.534;6.442;2022-12-26T16:30:55;2.40;;;1.13;;
62633;SDS011;48704;50.534;6.442;2022-12-26T16:33:22;4.15;;;1.15;;
62633;SDS011;48704;50.534;6.442;2022-12-26T16:35:49;7.43;;;2.08;;
62633;SDS011;48704;50.534;6.442;2022-12-26T16:38:17;3.85;;;1.73;;
62633;SDS011;48704;50.534;6.442;2022-12-26T16:40:52;3.88;;;1.98;;
62633;SDS011;48704;50.534;6.442;2022-12-26T16:45:45;5.40;;;2.30;;
62633;SDS011;48704;50.534;6.442;2022-12-26T16:48:14;5.15;;;2.33;;
62633;SDS011;48704;50.534;6.442;2022-12-26T16:50:47;5.22;;;2.10;;
62633;SDS011;48704;50.534;6.442;2022-12-26T16:53:15;3.83;;;1.80;;
62633;SDS011;48704;50.534;6.442;2022-12-26T16:58:15;5.88;;;2.80;;
62633;SDS011;48704;50.534;6.442;2022-12-26T17:03:50;4.90;;;2.28;;
62633;SDS011;48704;50.534;6.442;2022-12-26T17:06:26;8.77;;;3.00;;
62633;SDS011;48704;50.534;6.442;2022-12-26T17:08:53;5.18;;;2.97;;
62633;SDS011;48704;50.534;6.442;2022-12-26T17:11:28;3.15;;;1.83;;
62633;SDS011;48704;50.534;6.442;2022-12-26T17:13:56;4.55;;;2.35;;
62633;SDS011;48704;50.534;6.442;2022-12-26T17:16:23;6.63;;;2.38;;
62633;SDS011;48704;50.534;6.442;2022-12-26T17:19:07;4.88;;;2.45;;
62633;SDS011;48704;50.534;6.442;2022-12-26T17:21:35;4.85;;;2.38;;
62633;SDS011;48704;50.534;6.442;2022-12-26T17:26:32;11.70;;;3.42;;
62633;SDS011;48704;50.534;6.442;2022-12-26T17:28:58;6.00;;;2.65;;
62633;SDS011;48704;50.534;6.442;2022-12-26T17:34:13;4.72;;;2.80;;
62633;SDS011;48704;50.534;6.442;2022-12-26T17:36:44;5.10;;;2.50;;
62633;SDS011;48704;50.534;6.442;2022-12-26T17:39:10;5.82;;;3.03;;
62633;SDS011;48704;50.534;6.442;2022-12-26T17:41:47;5.72;;;3.15;;
62633;SDS011;48704;50.534;6.442;2022-12-26T17:44:31;7.35;;;2.88;;
62633;SDS011;48704;50.534;6.442;2022-12-26T17:47:10;5.07;;;3.25;;
62633;SDS011;48704;50.534;6.442;2022-12-26T17:49:47;5.85;;;3.03;;
62633;SDS011;48704;50.534;6.442;2022-12-26T17:52:15;6.65;;;2.53;;
62633;SDS011;48704;50.534;6.442;2022-12-26T17:54:42;6.75;;;2.40;;
62633;SDS011;48704;50.534;6.442;2022-12-26T17:57:22;6.15;;;2.45;;
62633;SDS011;48704;50.534;6.442;2022-12-26T17:59:50;8.00;;;3.28;;
62633;SDS011;48704;50.534;6.442;2022-12-26T18:02:17;4.70;;;2.63;;
62633;SDS011;48704;50.534;6.442;2022-12-26T18:04:42;6.95;;;2.90;;
62633;SDS011;48704;50.534;6.442;2022-12-26T18:07:11;6.45;;;3.55;;
62633;SDS011;48704;50.534;6.442;2022-12-26T18:09:41;7.88;;;3.03;;
62633;SDS011;48704;50.534;6.442;2022-12-26T18:12:09;11.20;;;3.38;;
62633;SDS011;48704;50.534;6.442;2022-12-26T18:14:36;8.05;;;3.28;;
62633;SDS011;48704;50.534;6.442;2022-12-26T18:17:01;5.78;;;3.35;;
62633;SDS011;48704;50.534;6.442;2022-12-26T18:19:27;6.88;;;3.30;;
62633;SDS011;48704;50.534;6.442;2022-12-26T18:21:52;8.50;;;3.63;;
62633;SDS011;48704;50.534;6.442;2022-12-26T18:24:18;10.50;;;3.97;;
62633;SDS011;48704;50.534;6.442;2022-12-26T18:26:45;9.57;;;2.83;;
62633;SDS011;48704;50.534;6.442;2022-12-26T18:29:12;3.00;;;1.92;;
62633;SDS011;48704;50.534;6.442;2022-12-26T18:31:37;8.38;;;2.97;;
62633;SDS011;48704;50.534;6.442;2022-12-26T18:34:03;4.40;;;2.22;;
62633;SDS011;48704;50.534;6.442;2022-12-26T18:36:31;7.90;;;2.53;;
62633;SDS011;48704;50.534;6.442;2022-12-26T18:38:58;3.10;;;2.08;;
62633;SDS011;48704;50.534;6.442;2022-12-26T18:41:24;11.25;;;3.55;;
62633;SDS011;48704;50.534;6.442;2022-12-26T18:43:49;9.00;;;3.30;;
62633;SDS011;48704;50.534;6.442;2022-12-26T18:46:16;10.70;;;2.83;;
62633;SDS011;48704;50.534;6.442;2022-12-26T18:48:43;6.28;;;2.63;;
62633;SDS011;48704;50.534;6.442;2022-12-26T18:51:09;7.13;;;2.53;;
62633;SDS011;48704;50.534;6.442;2022-12-26T18:53:34;13.18;;;3.30;;
62633;SDS011;48704;50.534;6.442;2022-12-26T18:55:59;8.32;;;2.65;;
62633;SDS011;48704;50.534;6.442;2022-12-26T18:58:25;6.68;;;2.78;;
62633;SDS011;48704;50.534;6.442;2022-12-26T19:00:50;6.53;;;2.60;;
62633;SDS011;48704;50.534;6.442;2022-12-26T19:03:15;10.93;;;4.15;;
62633;SDS011;48704;50.534;6.442;2022-12-26T19:05:41;8.98;;;3.42;;
62633;SDS011;48704;50.534;6.442;2022-12-26T19:08:06;7.00;;;3.50;;
62633;SDS011;48704;50.534;6.442;2022-12-26T19:10:32;10.55;;;3.42;;
62633;SDS011;48704;50.534;6.442;2022-12-26T19:12:59;8.23;;;3.40;;